Dalzell, Illinois
Current Conditions -  °F | °C
As of 6:55 AM on Thursday 30 Oct 2014 (Local Time) from KVYS Reporting Station
Clear Clear  
Wind Chill: 34°   Ceiling: Unl
Heat Index: 34°   Visibility: 10mi
Dew Point: 33°   Wind: 3mph
Humidity: 93%   Direction: 150°SSE
Pressure: 30.14"   Gusts: NA
Location:  41.36°N, 89.18°W
Report Text: KVYS 301155Z AUTO 15003KT 10SM CLR 01/00 A3014 RMK AO2 T00130003 10020 20003
Loading
Personal Weather Stations






























Interactive Weather Map
Tropical Storm Tracking
New forecast layout! Learn more

10-Day Weather Forecast

Advertisements
Track Severe Weather on mobile